sensor_id;sensor_type;location;lat;lon;timestamp;pressure;altitude;pressure_sealevel;temperature;humidity
42601;BME280;28229;48.856;9.088;2022-11-15T00:02:23;97722.88;;;10.60;70.55
42601;BME280;28229;48.856;9.088;2022-11-15T00:05:07;97721.88;;;10.61;70.53
42601;BME280;28229;48.856;9.088;2022-11-15T00:07:51;97717.19;;;10.63;70.27
42601;BME280;28229;48.856;9.088;2022-11-15T00:10:36;97719.81;;;10.63;69.77
42601;BME280;28229;48.856;9.088;2022-11-15T00:13:21;97723.50;;;10.62;70.03
42601;BME280;28229;48.856;9.088;2022-11-15T00:16:06;97719.25;;;10.61;69.87
42601;BME280;28229;48.856;9.088;2022-11-15T00:18:50;97726.34;;;10.61;69.98
42601;BME280;28229;48.856;9.088;2022-11-15T00:21:35;97731.38;;;10.62;69.87
42601;BME280;28229;48.856;9.088;2022-11-15T00:24:20;97725.75;;;10.59;70.22
42601;BME280;28229;48.856;9.088;2022-11-15T00:27:04;97719.53;;;10.53;70.24
42601;BME280;28229;48.856;9.088;2022-11-15T00:29:49;97713.56;;;10.46;70.47
42601;BME280;28229;48.856;9.088;2022-11-15T00:32:34;97715.63;;;10.44;70.76
42601;BME280;28229;48.856;9.088;2022-11-15T00:35:19;97711.47;;;10.36;71.19
42601;BME280;28229;48.856;9.088;2022-11-15T00:38:04;97708.88;;;10.29;71.28
42601;BME280;28229;48.856;9.088;2022-11-15T00:40:48;97711.94;;;10.26;71.64
42601;BME280;28229;48.856;9.088;2022-11-15T00:43:33;97708.81;;;10.18;71.88
42601;BME280;28229;48.856;9.088;2022-11-15T00:46:18;97703.78;;;10.16;72.39
42601;BME280;28229;48.856;9.088;2022-11-15T00:49:02;97708.00;;;10.17;71.96
42601;BME280;28229;48.856;9.088;2022-11-15T00:51:47;97705.75;;;10.02;72.36
42601;BME280;28229;48.856;9.088;2022-11-15T00:54:31;97703.78;;;9.98;72.88
42601;BME280;28229;48.856;9.088;2022-11-15T00:57:16;97702.03;;;9.91;72.96
42601;BME280;28229;48.856;9.088;2022-11-15T01:00:00;97689.91;;;9.90;72.96
42601;BME280;28229;48.856;9.088;2022-11-15T01:02:45;97694.50;;;9.95;72.80
42601;BME280;28229;48.856;9.088;2022-11-15T01:05:29;97693.78;;;9.88;73.21
42601;BME280;28229;48.856;9.088;2022-11-15T01:08:14;97687.34;;;9.84;74.33
42601;BME280;28229;48.856;9.088;2022-11-15T01:11:04;97687.22;;;9.79;74.74
42601;BME280;28229;48.856;9.088;2022-11-15T01:13:48;97682.03;;;9.72;75.08
42601;BME280;28229;48.856;9.088;2022-11-15T01:16:33;97679.19;;;9.74;74.61
42601;BME280;28229;48.856;9.088;2022-11-15T01:19:17;97678.22;;;9.68;74.22
42601;BME280;28229;48.856;9.088;2022-11-15T01:22:02;97681.13;;;9.60;74.42
42601;BME280;28229;48.856;9.088;2022-11-15T01:24:46;97676.59;;;9.67;74.19
42601;BME280;28229;48.856;9.088;2022-11-15T01:27:31;97673.47;;;9.58;74.36
42601;BME280;28229;48.856;9.088;2022-11-15T01:30:15;97667.84;;;9.55;74.55
42601;BME280;28229;48.856;9.088;2022-11-15T01:33:00;97672.34;;;9.47;74.97
42601;BME280;28229;48.856;9.088;2022-11-15T01:35:44;97666.94;;;9.42;75.50
42601;BME280;28229;48.856;9.088;2022-11-15T01:38:28;97671.22;;;9.37;75.87
42601;BME280;28229;48.856;9.088;2022-11-15T01:41:18;97664.28;;;9.24;76.71
42601;BME280;28229;48.856;9.088;2022-11-15T01:47:16;97664.53;;;9.15;76.91
42601;BME280;28229;48.856;9.088;2022-11-15T01:50:12;97663.97;;;9.13;76.84
42601;BME280;28229;48.856;9.088;2022-11-15T01:52:58;97664.59;;;9.09;76.65
42601;BME280;28229;48.856;9.088;2022-11-15T01:55:42;97668.25;;;9.08;76.80
42601;BME280;28229;48.856;9.088;2022-11-15T01:58:27;97663.25;;;9.00;77.09
42601;BME280;28229;48.856;9.088;2022-11-15T02:01:14;97660.63;;;9.00;77.68
42601;BME280;28229;48.856;9.088;2022-11-15T02:04:02;97653.59;;;9.00;77.59
42601;BME280;28229;48.856;9.088;2022-11-15T02:06:50;97651.00;;;8.93;78.05
42601;BME280;28229;48.856;9.088;2022-11-15T02:09:36;97654.59;;;8.99;77.64
42601;BME280;28229;48.856;9.088;2022-11-15T02:12:21;97649.13;;;9.01;77.53
42601;BME280;28229;48.856;9.088;2022-11-15T02:15:07;97650.72;;;9.02;77.91
42601;BME280;28229;48.856;9.088;2022-11-15T02:18:12;97645.31;;;8.96;78.04
42601;BME280;28229;48.856;9.088;2022-11-15T02:21:14;97643.91;;;8.94;78.20
42601;BME280;28229;48.856;9.088;2022-11-15T02:27:41;97637.91;;;8.87;78.89
42601;BME280;28229;48.856;9.088;2022-11-15T02:31:05;97626.09;;;8.77;79.59
42601;BME280;28229;48.856;9.088;2022-11-15T02:37:14;97620.13;;;8.64;81.61
42601;BME280;28229;48.856;9.088;2022-11-15T02:40:15;97619.34;;;8.63;82.00
42601;BME280;28229;48.856;9.088;2022-11-15T02:43:09;97614.50;;;8.60;82.49
42601;BME280;28229;48.856;9.088;2022-11-15T02:49:30;97608.72;;;8.51;82.91
42601;BME280;28229;48.856;9.088;2022-11-15T02:52:17;97605.66;;;8.54;82.34
42601;BME280;28229;48.856;9.088;2022-11-15T02:55:02;97604.91;;;8.47;82.24
42601;BME280;28229;48.856;9.088;2022-11-15T03:04:12;97595.22;;;8.48;82.35
42601;BME280;28229;48.856;9.088;2022-11-15T03:07:08;97592.78;;;8.53;81.99
42601;BME280;28229;48.856;9.088;2022-11-15T03:10:21;97588.00;;;8.43;82.62
42601;BME280;28229;48.856;9.088;2022-11-15T03:13:26;97588.00;;;8.36;82.99
42601;BME280;28229;48.856;9.088;2022-11-15T03:19:13;97578.34;;;8.30;83.26
42601;BME280;28229;48.856;9.088;2022-11-15T03:22:03;97572.72;;;8.27;83.46
42601;BME280;28229;48.856;9.088;2022-11-15T03:24:53;97577.59;;;8.23;83.56
42601;BME280;28229;48.856;9.088;2022-11-15T03:27:41;97577.19;;;8.26;83.53
42601;BME280;28229;48.856;9.088;2022-11-15T03:30:28;97575.16;;;8.28;82.64
42601;BME280;28229;48.856;9.088;2022-11-15T03:33:15;97572.47;;;8.42;82.13
42601;BME280;28229;48.856;9.088;2022-11-15T03:36:00;97573.06;;;8.44;81.62
42601;BME280;28229;48.856;9.088;2022-11-15T03:38:45;97562.41;;;8.32;82.64
42601;BME280;28229;48.856;9.088;2022-11-15T03:42:03;97556.81;;;8.28;83.86
42601;BME280;28229;48.856;9.088;2022-11-15T03:47:49;97557.84;;;8.27;82.89
42601;BME280;28229;48.856;9.088;2022-11-15T03:50:35;97551.97;;;8.25;83.01
42601;BME280;28229;48.856;9.088;2022-11-15T03:53:20;97548.84;;;8.16;83.46
42601;BME280;28229;48.856;9.088;2022-11-15T03:56:05;97548.28;;;8.08;84.27
42601;BME280;28229;48.856;9.088;2022-11-15T03:58:50;97551.06;;;8.13;84.43
42601;BME280;28229;48.856;9.088;2022-11-15T04:01:35;97557.13;;;8.07;84.95
42601;BME280;28229;48.856;9.088;2022-11-15T04:04:20;97551.91;;;8.07;84.71
42601;BME280;28229;48.856;9.088;2022-11-15T04:07:05;97555.53;;;8.06;85.12
42601;BME280;28229;48.856;9.088;2022-11-15T04:09:50;97550.91;;;8.01;85.27
42601;BME280;28229;48.856;9.088;2022-11-15T04:12:46;97562.00;;;7.96;85.41
42601;BME280;28229;48.856;9.088;2022-11-15T04:15:32;97553.91;;;8.05;84.93
42601;BME280;28229;48.856;9.088;2022-11-15T04:18:17;97547.13;;;7.97;85.54
42601;BME280;28229;48.856;9.088;2022-11-15T04:21:01;97544.72;;;7.95;86.33
42601;BME280;28229;48.856;9.088;2022-11-15T04:24:05;97545.06;;;8.06;86.85
42601;BME280;28229;48.856;9.088;2022-11-15T04:26:59;97550.88;;;8.08;86.49
42601;BME280;28229;48.856;9.088;2022-11-15T04:29:43;97543.03;;;8.08;86.50
42601;BME280;28229;48.856;9.088;2022-11-15T04:32:28;97552.09;;;8.05;87.06
42601;BME280;28229;48.856;9.088;2022-11-15T04:35:12;97549.31;;;8.00;86.74
42601;BME280;28229;48.856;9.088;2022-11-15T04:37:57;97539.03;;;7.98;86.43
42601;BME280;28229;48.856;9.088;2022-11-15T04:40:42;97537.44;;;7.97;86.52
42601;BME280;28229;48.856;9.088;2022-11-15T04:43:27;97539.38;;;8.09;86.03
42601;BME280;28229;48.856;9.088;2022-11-15T04:46:12;97532.72;;;8.13;85.53
42601;BME280;28229;48.856;9.088;2022-11-15T04:48:57;97536.53;;;8.17;85.62
42601;BME280;28229;48.856;9.088;2022-11-15T04:51:42;97528.38;;;8.25;85.17
42601;BME280;28229;48.856;9.088;2022-11-15T04:54:26;97530.00;;;8.26;84.86
42601;BME280;28229;48.856;9.088;2022-11-15T04:57:11;97525.53;;;8.33;84.77
42601;BME280;28229;48.856;9.088;2022-11-15T04:59:55;97526.53;;;8.32;84.98
42601;BME280;28229;48.856;9.088;2022-11-15T05:02:40;97517.50;;;8.28;84.85
42601;BME280;28229;48.856;9.088;2022-11-15T05:05:43;97512.66;;;8.25;84.92
42601;BME280;28229;48.856;9.088;2022-11-15T05:08:34;97513.41;;;8.32;84.97
42601;BME280;28229;48.856;9.088;2022-11-15T05:11:18;97520.28;;;8.33;84.60
42601;BME280;28229;48.856;9.088;2022-11-15T05:14:04;97514.25;;;8.33;84.66
42601;BME280;28229;48.856;9.088;2022-11-15T05:16:48;97509.72;;;8.15;85.41
42601;BME280;28229;48.856;9.088;2022-11-15T05:19:33;97502.66;;;8.15;85.71
42601;BME280;28229;48.856;9.088;2022-11-15T05:22:18;97502.72;;;8.09;86.02
42601;BME280;28229;48.856;9.088;2022-11-15T05:25:03;97503.56;;;8.03;86.35
42601;BME280;28229;48.856;9.088;2022-11-15T05:27:48;97508.22;;;8.00;86.42
42601;BME280;28229;48.856;9.088;2022-11-15T05:30:33;97494.72;;;7.97;86.98
42601;BME280;28229;48.856;9.088;2022-11-15T05:33:18;97496.16;;;7.93;87.50
42601;BME280;28229;48.856;9.088;2022-11-15T05:36:07;97493.97;;;7.90;87.03
42601;BME280;28229;48.856;9.088;2022-11-15T05:38:54;97489.34;;;7.85;87.27
42601;BME280;28229;48.856;9.088;2022-11-15T05:41:44;97486.06;;;7.96;86.55
42601;BME280;28229;48.856;9.088;2022-11-15T05:44:32;97481.78;;;8.02;85.69
42601;BME280;28229;48.856;9.088;2022-11-15T05:47:23;97494.72;;;7.97;86.65
42601;BME280;28229;48.856;9.088;2022-11-15T05:50:14;97491.06;;;8.05;87.28
42601;BME280;28229;48.856;9.088;2022-11-15T05:53:01;97495.28;;;8.06;87.60
42601;BME280;28229;48.856;9.088;2022-11-15T05:55:46;97491.09;;;7.98;87.59
42601;BME280;28229;48.856;9.088;2022-11-15T05:58:32;97491.13;;;7.91;88.27
42601;BME280;28229;48.856;9.088;2022-11-15T06:01:16;97489.72;;;7.89;88.36
42601;BME280;28229;48.856;9.088;2022-11-15T06:04:01;97485.47;;;7.94;87.55
42601;BME280;28229;48.856;9.088;2022-11-15T06:06:45;97489.81;;;8.07;86.52
42601;BME280;28229;48.856;9.088;2022-11-15T06:09:30;97492.66;;;8.06;86.54
42601;BME280;28229;48.856;9.088;2022-11-15T06:12:14;97495.69;;;8.03;87.51
42601;BME280;28229;48.856;9.088;2022-11-15T06:14:59;97486.63;;;7.98;88.22
42601;BME280;28229;48.856;9.088;2022-11-15T06:17:43;97497.09;;;8.05;87.99
42601;BME280;28229;48.856;9.088;2022-11-15T06:20:29;97495.88;;;8.08;87.17
42601;BME280;28229;48.856;9.088;2022-11-15T06:23:13;97488.19;;;8.13;87.00
42601;BME280;28229;48.856;9.088;2022-11-15T06:25:59;97497.81;;;8.19;86.44
42601;BME280;28229;48.856;9.088;2022-11-15T06:28:43;97496.94;;;8.25;85.66
42601;BME280;28229;48.856;9.088;2022-11-15T06:31:28;97488.06;;;8.26;85.09
42601;BME280;28229;48.856;9.088;2022-11-15T06:34:12;97484.00;;;8.30;84.83
42601;BME280;28229;48.856;9.088;2022-11-15T06:36:57;97491.03;;;8.36;84.79
42601;BME280;28229;48.856;9.088;2022-11-15T06:39:41;97492.81;;;8.43;84.49
42601;BME280;28229;48.856;9.088;2022-11-15T06:42:25;97492.81;;;8.43;84.50
42601;BME280;28229;48.856;9.088;2022-11-15T06:45:10;97496.03;;;8.45;83.96
42601;BME280;28229;48.856;9.088;2022-11-15T06:47:55;97495.97;;;8.51;83.43
42601;BME280;28229;48.856;9.088;2022-11-15T06:50:39;97504.06;;;8.50;83.34
42601;BME280;28229;48.856;9.088;2022-11-15T06:53:25;97506.09;;;8.48;83.83
42601;BME280;28229;48.856;9.088;2022-11-15T06:56:10;97500.06;;;8.47;84.63
42601;BME280;28229;48.856;9.088;2022-11-15T06:58:55;97504.06;;;8.50;85.48
42601;BME280;28229;48.856;9.088;2022-11-15T07:01:39;97512.44;;;8.58;85.50
42601;BME280;28229;48.856;9.088;2022-11-15T07:04:24;97525.78;;;8.57;85.90
42601;BME280;28229;48.856;9.088;2022-11-15T07:07:09;97516.31;;;8.56;85.25
42601;BME280;28229;48.856;9.088;2022-11-15T07:09:54;97517.28;;;8.62;84.55
42601;BME280;28229;48.856;9.088;2022-11-15T07:12:38;97518.78;;;8.76;83.58
42601;BME280;28229;48.856;9.088;2022-11-15T07:15:26;97523.13;;;8.82;83.03
42601;BME280;28229;48.856;9.088;2022-11-15T07:18:10;97525.06;;;8.93;82.00
42601;BME280;28229;48.856;9.088;2022-11-15T07:20:55;97525.44;;;8.97;81.67
42601;BME280;28229;48.856;9.088;2022-11-15T07:23:39;97521.34;;;9.01;81.33
42601;BME280;28229;48.856;9.088;2022-11-15T07:26:24;97520.56;;;9.01;81.51
42601;BME280;28229;48.856;9.088;2022-11-15T07:29:08;97514.78;;;9.10;81.83
42601;BME280;28229;48.856;9.088;2022-11-15T07:31:53;97515.31;;;9.19;81.83
42601;BME280;28229;48.856;9.088;2022-11-15T07:34:37;97520.81;;;9.36;85.10
42601;BME280;28229;48.856;9.088;2022-11-15T07:37:22;97508.28;;;9.50;83.49
42601;BME280;28229;48.856;9.088;2022-11-15T07:40:07;97508.00;;;9.58;81.35
42601;BME280;28229;48.856;9.088;2022-11-15T07:42:51;97501.06;;;9.64;79.58
42601;BME280;28229;48.856;9.088;2022-11-15T07:45:42;97496.38;;;9.66;79.77
42601;BME280;28229;48.856;9.088;2022-11-15T07:48:26;97494.72;;;9.71;78.31
42601;BME280;28229;48.856;9.088;2022-11-15T07:51:13;97500.09;;;9.77;77.85
42601;BME280;28229;48.856;9.088;2022-11-15T07:54:01;97499.44;;;9.81;77.45
42601;BME280;28229;48.856;9.088;2022-11-15T07:56:45;97493.16;;;9.82;77.19
42601;BME280;28229;48.856;9.088;2022-11-15T07:59:30;97494.09;;;9.88;76.77
42601;BME280;28229;48.856;9.088;2022-11-15T08:02:14;97488.28;;;9.98;77.13
42601;BME280;28229;48.856;9.088;2022-11-15T08:05:01;97487.53;;;10.09;76.22
42601;BME280;28229;48.856;9.088;2022-11-15T08:07:46;97490.53;;;10.13;76.15
42601;BME280;28229;48.856;9.088;2022-11-15T08:10:30;97494.41;;;10.22;75.38
42601;BME280;28229;48.856;9.088;2022-11-15T08:13:15;97487.44;;;10.27;74.87
42601;BME280;28229;48.856;9.088;2022-11-15T08:16:01;97486.81;;;10.32;74.86
42601;BME280;28229;48.856;9.088;2022-11-15T08:18:45;97487.75;;;10.38;74.51
42601;BME280;28229;48.856;9.088;2022-11-15T08:21:30;97485.56;;;10.46;74.29
42601;BME280;28229;48.856;9.088;2022-11-15T08:24:15;97481.94;;;10.59;73.96
42601;BME280;28229;48.856;9.088;2022-11-15T08:27:00;97477.00;;;10.75;73.23
42601;BME280;28229;48.856;9.088;2022-11-15T08:29:45;97469.44;;;10.90;72.76
42601;BME280;28229;48.856;9.088;2022-11-15T08:32:31;97464.50;;;11.05;72.27
42601;BME280;28229;48.856;9.088;2022-11-15T08:35:16;97466.41;;;11.22;71.23
42601;BME280;28229;48.856;9.088;2022-11-15T08:38:01;97462.50;;;11.36;71.21
42601;BME280;28229;48.856;9.088;2022-11-15T08:40:45;97463.03;;;11.50;70.32
42601;BME280;28229;48.856;9.088;2022-11-15T08:43:30;97458.84;;;11.66;69.71
42601;BME280;28229;48.856;9.088;2022-11-15T08:46:14;97455.31;;;11.89;69.05
42601;BME280;28229;48.856;9.088;2022-11-15T08:49:00;97452.47;;;12.08;67.59
42601;BME280;28229;48.856;9.088;2022-11-15T08:51:44;97458.41;;;12.32;65.98
42601;BME280;28229;48.856;9.088;2022-11-15T08:54:29;97445.69;;;12.46;64.28
42601;BME280;28229;48.856;9.088;2022-11-15T08:57:14;97447.75;;;12.61;65.91
42601;BME280;28229;48.856;9.088;2022-11-15T08:59:58;97443.31;;;12.83;65.72
42601;BME280;28229;48.856;9.088;2022-11-15T09:02:43;97447.06;;;12.87;64.28
42601;BME280;28229;48.856;9.088;2022-11-15T09:05:27;97448.41;;;12.90;65.54
42601;BME280;28229;48.856;9.088;2022-11-15T09:08:11;97452.44;;;12.92;64.22
42601;BME280;28229;48.856;9.088;2022-11-15T09:10:57;97448.88;;;13.04;65.35
42601;BME280;28229;48.856;9.088;2022-11-15T09:13:42;97448.69;;;13.10;65.02
42601;BME280;28229;48.856;9.088;2022-11-15T09:16:30;97445.31;;;13.15;64.64
42601;BME280;28229;48.856;9.088;2022-11-15T09:19:14;97447.69;;;13.17;65.96
42601;BME280;28229;48.856;9.088;2022-11-15T09:21:59;97446.72;;;13.23;67.03
42601;BME280;28229;48.856;9.088;2022-11-15T09:24:44;97437.03;;;13.28;67.07
42601;BME280;28229;48.856;9.088;2022-11-15T09:27:29;97436.06;;;13.35;67.42
42601;BME280;28229;48.856;9.088;2022-11-15T09:30:14;97434.00;;;13.42;68.14
42601;BME280;28229;48.856;9.088;2022-11-15T09:32:59;97443.16;;;13.56;67.91
42601;BME280;28229;48.856;9.088;2022-11-15T09:35:50;97441.16;;;13.68;67.27
42601;BME280;28229;48.856;9.088;2022-11-15T09:38:35;97443.38;;;13.77;66.53
42601;BME280;28229;48.856;9.088;2022-11-15T09:45:03;97438.34;;;14.07;64.14
42601;BME280;28229;48.856;9.088;2022-11-15T09:50:51;97428.00;;;14.33;63.44
42601;BME280;28229;48.856;9.088;2022-11-15T09:53:38;97420.59;;;14.35;63.67
42601;BME280;28229;48.856;9.088;2022-11-15T09:56:42;97418.19;;;14.34;63.01
42601;BME280;28229;48.856;9.088;2022-11-15T09:59:47;97425.59;;;14.32;63.56
42601;BME280;28229;48.856;9.088;2022-11-15T10:05:08;97412.63;;;14.30;62.91
42601;BME280;28229;48.856;9.088;2022-11-15T10:10:25;97407.50;;;14.18;64.42
42601;BME280;28229;48.856;9.088;2022-11-15T10:12:53;97412.25;;;14.16;65.90
42601;BME280;28229;48.856;9.088;2022-11-15T10:15:19;97409.34;;;14.18;66.28
42601;BME280;28229;48.856;9.088;2022-11-15T10:18:14;97402.44;;;14.17;66.57
42601;BME280;28229;48.856;9.088;2022-11-15T10:23:16;97401.41;;;14.18;65.24
42601;BME280;28229;48.856;9.088;2022-11-15T10:25:43;97391.59;;;14.13;66.63
42601;BME280;28229;48.856;9.088;2022-11-15T10:28:26;97389.47;;;14.10;65.58
42601;BME280;28229;48.856;9.088;2022-11-15T10:30:55;97388.59;;;14.04;66.08
42601;BME280;28229;48.856;9.088;2022-11-15T10:33:35;97384.38;;;14.03;65.41
42601;BME280;28229;48.856;9.088;2022-11-15T10:41:36;97370.56;;;13.96;66.14
42601;BME280;28229;48.856;9.088;2022-11-15T10:44:30;97367.88;;;13.91;66.35
42601;BME280;28229;48.856;9.088;2022-11-15T10:49:25;97375.81;;;13.91;64.92
42601;BME280;28229;48.856;9.088;2022-11-15T10:54:29;97362.56;;;13.86;66.29
42601;BME280;28229;48.856;9.088;2022-11-15T10:56:59;97361.00;;;13.90;65.31
42601;BME280;28229;48.856;9.088;2022-11-15T10:59:28;97355.19;;;13.93;65.62
42601;BME280;28229;48.856;9.088;2022-11-15T11:01:54;97356.28;;;13.97;66.19
42601;BME280;28229;48.856;9.088;2022-11-15T11:04:20;97350.47;;;13.95;65.80
42601;BME280;28229;48.856;9.088;2022-11-15T11:06:48;97354.69;;;13.96;65.87
42601;BME280;28229;48.856;9.088;2022-11-15T11:11:51;97348.34;;;13.92;66.25
42601;BME280;28229;48.856;9.088;2022-11-15T11:14:27;97351.00;;;13.97;67.28
42601;BME280;28229;48.856;9.088;2022-11-15T11:17:09;97348.94;;;14.04;68.33
42601;BME280;28229;48.856;9.088;2022-11-15T11:23:34;97350.28;;;14.07;69.69
42601;BME280;28229;48.856;9.088;2022-11-15T11:31:07;97334.22;;;14.14;69.27
42601;BME280;28229;48.856;9.088;2022-11-15T11:33:47;97329.50;;;14.21;72.11
42601;BME280;28229;48.856;9.088;2022-11-15T11:47:09;97303.34;;;14.35;68.41
42601;BME280;28229;48.856;9.088;2022-11-15T11:52:23;97292.59;;;14.52;69.25
42601;BME280;28229;48.856;9.088;2022-11-15T11:57:49;97292.97;;;14.65;67.58
42601;BME280;28229;48.856;9.088;2022-11-15T12:00:22;97295.63;;;14.71;67.84
42601;BME280;28229;48.856;9.088;2022-11-15T12:05:42;97283.22;;;14.87;66.87
42601;BME280;28229;48.856;9.088;2022-11-15T12:08:27;97281.41;;;14.92;65.79
42601;BME280;28229;48.856;9.088;2022-11-15T12:11:17;97274.78;;;15.05;65.24
42601;BME280;28229;48.856;9.088;2022-11-15T12:13:44;97273.44;;;15.02;65.26
42601;BME280;28229;48.856;9.088;2022-11-15T12:18:49;97273.19;;;14.99;65.23
42601;BME280;28229;48.856;9.088;2022-11-15T12:26:53;97263.38;;;14.89;63.78
42601;BME280;28229;48.856;9.088;2022-11-15T12:29:33;97268.66;;;14.84;63.63
42601;BME280;28229;48.856;9.088;2022-11-15T12:32:01;97264.13;;;14.74;63.78
42601;BME280;28229;48.856;9.088;2022-11-15T12:34:43;97259.31;;;14.66;64.66
42601;BME280;28229;48.856;9.088;2022-11-15T12:43:03;97251.88;;;14.58;64.59
42601;BME280;28229;48.856;9.088;2022-11-15T12:45:38;97253.72;;;14.57;64.75
42601;BME280;28229;48.856;9.088;2022-11-15T12:58:42;97233.31;;;14.47;65.70
42601;BME280;28229;48.856;9.088;2022-11-15T13:01:10;97235.94;;;14.42;65.01
42601;BME280;28229;48.856;9.088;2022-11-15T13:07:01;97227.44;;;14.35;65.79
42601;BME280;28229;48.856;9.088;2022-11-15T13:11:56;97216.31;;;14.33;65.66
42601;BME280;28229;48.856;9.088;2022-11-15T13:17:35;97214.66;;;14.22;66.08
42601;BME280;28229;48.856;9.088;2022-11-15T13:22:41;97207.81;;;14.21;67.21
42601;BME280;28229;48.856;9.088;2022-11-15T13:28:01;97194.28;;;14.12;68.32
42601;BME280;28229;48.856;9.088;2022-11-15T13:30:31;97190.28;;;14.09;68.58
42601;BME280;28229;48.856;9.088;2022-11-15T13:33:10;97184.97;;;14.09;68.95
42601;BME280;28229;48.856;9.088;2022-11-15T13:35:52;97181.78;;;14.02;68.06
42601;BME280;28229;48.856;9.088;2022-11-15T13:38:32;97180.22;;;14.06;68.26
42601;BME280;28229;48.856;9.088;2022-11-15T13:41:00;97173.84;;;14.02;68.08
42601;BME280;28229;48.856;9.088;2022-11-15T13:43:36;97174.88;;;13.96;68.89
42601;BME280;28229;48.856;9.088;2022-11-15T13:46:20;97170.34;;;13.92;68.59
42601;BME280;28229;48.856;9.088;2022-11-15T13:48:52;97160.56;;;13.87;68.32
42601;BME280;28229;48.856;9.088;2022-11-15T13:51:33;97158.19;;;13.85;68.61
42601;BME280;28229;48.856;9.088;2022-11-15T13:56:38;97161.56;;;13.76;69.13
42601;BME280;28229;48.856;9.088;2022-11-15T14:01:49;97156.75;;;13.67;69.82
42601;BME280;28229;48.856;9.088;2022-11-15T14:04:19;97150.38;;;13.63;70.24
42601;BME280;28229;48.856;9.088;2022-11-15T14:06:52;97150.91;;;13.60;70.13
42601;BME280;28229;48.856;9.088;2022-11-15T14:09:36;97151.13;;;13.54;70.51
42601;BME280;28229;48.856;9.088;2022-11-15T14:14:50;97141.88;;;13.56;71.02
42601;BME280;28229;48.856;9.088;2022-11-15T14:17:36;97137.13;;;13.53;70.97
42601;BME280;28229;48.856;9.088;2022-11-15T14:20:29;97137.66;;;13.55;70.85
42601;BME280;28229;48.856;9.088;2022-11-15T14:23:02;97133.94;;;13.51;70.90
42601;BME280;28229;48.856;9.088;2022-11-15T14:25:30;97127.81;;;13.45;71.63
42601;BME280;28229;48.856;9.088;2022-11-15T14:30:43;97118.28;;;13.39;72.08
42601;BME280;28229;48.856;9.088;2022-11-15T14:33:36;97103.94;;;13.30;72.48
42601;BME280;28229;48.856;9.088;2022-11-15T14:36:05;97105.53;;;13.31;72.82
42601;BME280;28229;48.856;9.088;2022-11-15T14:38:32;97104.72;;;13.30;73.43
42601;BME280;28229;48.856;9.088;2022-11-15T14:40:58;97097.84;;;13.29;73.34
42601;BME280;28229;48.856;9.088;2022-11-15T14:43:24;97092.56;;;13.29;73.34
42601;BME280;28229;48.856;9.088;2022-11-15T14:45:50;97089.88;;;13.24;73.37
42601;BME280;28229;48.856;9.088;2022-11-15T14:48:16;97083.03;;;13.23;73.58
42601;BME280;28229;48.856;9.088;2022-11-15T14:50:41;97089.03;;;13.13;74.09
42601;BME280;28229;48.856;9.088;2022-11-15T14:53:16;97078.16;;;13.10;73.73
42601;BME280;28229;48.856;9.088;2022-11-15T14:55:42;97083.72;;;13.08;74.16
42601;BME280;28229;48.856;9.088;2022-11-15T14:58:08;97081.34;;;13.07;73.88
42601;BME280;28229;48.856;9.088;2022-11-15T15:00:36;97076.31;;;13.05;74.03
42601;BME280;28229;48.856;9.088;2022-11-15T15:03:04;97077.56;;;12.98;73.76
42601;BME280;28229;48.856;9.088;2022-11-15T15:05:36;97069.09;;;12.95;73.82
42601;BME280;28229;48.856;9.088;2022-11-15T15:08:03;97073.84;;;12.93;74.41
42601;BME280;28229;48.856;9.088;2022-11-15T15:10:35;97062.75;;;12.91;74.80
42601;BME280;28229;48.856;9.088;2022-11-15T15:13:01;97059.31;;;12.91;75.14
42601;BME280;28229;48.856;9.088;2022-11-15T15:15:37;97064.31;;;12.87;75.22
42601;BME280;28229;48.856;9.088;2022-11-15T15:18:04;97056.34;;;12.82;75.30
42601;BME280;28229;48.856;9.088;2022-11-15T15:20:34;97042.59;;;12.80;75.19
42601;BME280;28229;48.856;9.088;2022-11-15T15:23:00;97039.44;;;12.78;75.78
42601;BME280;28229;48.856;9.088;2022-11-15T15:25:34;97034.16;;;12.78;75.45
42601;BME280;28229;48.856;9.088;2022-11-15T15:28:03;97032.00;;;12.75;75.84
42601;BME280;28229;48.856;9.088;2022-11-15T15:30:30;97030.94;;;12.71;75.58
42601;BME280;28229;48.856;9.088;2022-11-15T15:32:56;97026.69;;;12.70;76.23
42601;BME280;28229;48.856;9.088;2022-11-15T15:35:29;97029.59;;;12.68;75.54
42601;BME280;28229;48.856;9.088;2022-11-15T15:37:56;97034.56;;;12.65;75.66
42601;BME280;28229;48.856;9.088;2022-11-15T15:40:23;97031.88;;;12.60;75.70
42601;BME280;28229;48.856;9.088;2022-11-15T15:42:50;97015.47;;;12.52;75.31
42601;BME280;28229;48.856;9.088;2022-11-15T15:45:16;97023.44;;;12.57;76.04
42601;BME280;28229;48.856;9.088;2022-11-15T15:47:43;97024.75;;;12.55;74.99
42601;BME280;28229;48.856;9.088;2022-11-15T15:52:50;97014.69;;;12.52;75.21
42601;BME280;28229;48.856;9.088;2022-11-15T15:55:17;97012.00;;;12.47;74.66
42601;BME280;28229;48.856;9.088;2022-11-15T15:57:42;96999.56;;;12.42;74.82
42601;BME280;28229;48.856;9.088;2022-11-15T16:00:09;97014.34;;;12.43;74.60
42601;BME280;28229;48.856;9.088;2022-11-15T16:02:39;96998.72;;;12.36;74.17
42601;BME280;28229;48.856;9.088;2022-11-15T16:05:05;97000.81;;;12.34;74.39
42601;BME280;28229;48.856;9.088;2022-11-15T16:07:31;96996.28;;;12.30;74.12
42601;BME280;28229;48.856;9.088;2022-11-15T16:09:57;96995.50;;;12.29;74.23
42601;BME280;28229;48.856;9.088;2022-11-15T16:12:32;96986.25;;;12.27;74.32
42601;BME280;28229;48.856;9.088;2022-11-15T16:14:59;96981.97;;;12.21;74.35
42601;BME280;28229;48.856;9.088;2022-11-15T16:17:30;96979.28;;;12.15;75.02
42601;BME280;28229;48.856;9.088;2022-11-15T16:19:57;96977.41;;;12.11;75.33
42601;BME280;28229;48.856;9.088;2022-11-15T16:22:23;96968.94;;;12.04;75.35
42601;BME280;28229;48.856;9.088;2022-11-15T16:24:49;96971.56;;;12.04;75.59
42601;BME280;28229;48.856;9.088;2022-11-15T16:27:16;96964.97;;;12.06;75.37
42601;BME280;28229;48.856;9.088;2022-11-15T16:29:43;96972.09;;;12.06;75.13
42601;BME280;28229;48.856;9.088;2022-11-15T16:32:09;96969.22;;;12.07;74.99
42601;BME280;28229;48.856;9.088;2022-11-15T16:34:35;96959.22;;;12.09;74.78